Time;durP1;ratioP1;P1;durP2;ratioP2;P2;SDS_P1;SDS_P2;PMS_P1;PMS_P2;Temp;Humidity;BMP_temperature;BMP_pressure;BME280_temperature;BME280_humidity;BME280_pressure;Samples;Min_cycle;Max_cycle;Signal;HPM_P1;HPM_P2
2023/04/29 00:01:37;;;;;;;29.80;13.60;;;;;;;7.42;53.09;99515.41;105925;1254;62215;-70
2023/04/29 00:04:03;;;;;;;37.50;17.40;;;;;;;7.49;53.10;99521.06;105936;1254;61298;-72
2023/04/29 00:06:31;;;;;;;48.40;20.00;;;;;;;7.61;53.03;99520.63;105936;1256;75704;-71
2023/04/29 00:08:58;;;;;;;50.10;20.90;;;;;;;7.93;51.44;99522.35;105212;1254;1003170;-72
2023/04/29 00:11:24;;;;;;;42.80;15.40;;;;;;;7.87;51.65;99520.89;105890;1256;71442;-72
2023/04/29 00:13:52;;;;;;;38.20;17.60;;;;;;;8.02;51.51;99518.95;105969;1254;62296;-72
2023/04/29 00:16:19;;;;;;;39.80;17.50;;;;;;;8.25;51.11;99514.57;105938;1253;61294;-76
2023/04/29 00:18:46;;;;;;;41.70;20.70;;;;;;;8.38;50.74;99514.94;105926;1256;75125;-72
2023/04/29 00:21:13;;;;;;;52.30;23.00;;;;;;;8.30;50.49;99516.58;105908;1253;69059;-71
2023/04/29 00:23:40;;;;;;;70.70;29.40;;;;;;;7.75;52.36;99515.95;105967;1253;73740;-71
2023/04/29 00:26:07;;;;;;;63.70;27.40;;;;;;;7.70;52.88;99515.69;105874;1253;61276;-71
2023/04/29 00:28:34;;;;;;;44.30;20.30;;;;;;;7.72;52.71;99509.84;105802;1253;62167;-71
2023/04/29 00:31:01;;;;;;;45.70;20.80;;;;;;;7.54;52.96;99508.88;105903;1256;75637;-65
2023/04/29 00:33:28;;;;;;;88.20;32.70;;;;;;;7.89;51.72;99505.98;105769;1253;69861;-72
2023/04/29 00:35:55;;;;;;;84.10;33.30;;;;;;;8.02;51.33;99503.80;105941;1253;72839;-72
2023/04/29 00:38:22;;;;;;;83.50;32.70;;;;;;;7.81;52.11;99507.05;105730;1254;61241;-72
2023/04/29 00:40:49;;;;;;;76.40;30.50;;;;;;;7.97;51.27;99503.13;105664;1253;61224;-71
2023/04/29 00:43:16;;;;;;;68.80;25.80;;;;;;;8.05;50.87;99501.41;105754;1258;74539;-68
2023/04/29 00:45:45;;;;;;;66.40;28.50;;;;;;;7.86;51.89;99500.90;105698;1253;68693;-69
2023/04/29 00:48:14;;;;;;;75.30;31.40;;;;;;;7.99;52.14;99502.04;105602;1260;73878;-70
2023/04/29 00:50:41;;;;;;;53.00;25.60;;;;;;;8.14;51.47;99503.39;105664;1253;61320;-69
2023/04/29 00:53:13;;;;;;;61.30;27.00;;;;;;;6.56;56.24;99502.36;105706;1254;61129;-70
2023/04/29 00:55:41;;;;;;;56.60;25.60;;;;;;;5.41;66.20;99500.25;105653;1255;75842;-70
2023/04/29 00:58:09;;;;;;;52.60;27.50;;;;;;;5.21;66.93;99502.77;105687;1253;69575;-70
2023/04/29 01:00:36;;;;;;;52.70;24.50;;;;;;;4.96;72.43;99497.87;105594;1261;73311;-71
2023/04/29 01:03:04;;;;;;;51.60;21.60;;;;;;;5.21;69.66;99498.88;105609;1253;61360;-69
2023/04/29 01:05:32;;;;;;;51.50;23.80;;;;;;;5.10;70.27;99500.50;105679;1254;61320;-71
2023/04/29 01:08:13;;;;;;;66.80;26.10;;;;;;;5.09;70.01;99503.13;105864;1256;74725;-71
2023/04/29 01:10:54;;;;;;;59.40;29.10;;;;;;;4.89;71.54;99503.68;105931;1254;69887;-69
2023/04/29 01:13:50;;;;;;;54.00;22.30;;;;;;;4.92;71.65;99501.43;105663;1253;72696;-68
2023/04/29 01:16:38;;;;;;;65.70;28.30;;;;;;;4.66;73.21;99506.88;105749;1254;62095;-73
2023/04/29 01:19:16;;;;;;;41.00;20.50;;;;;;;4.70;73.89;99507.71;105718;1257;61282;-70
2023/04/29 01:21:50;;;;;;;45.00;19.90;;;;;;;4.67;74.31;99509.41;105713;1254;74810;-68
2023/04/29 01:24:17;;;;;;;45.60;21.50;;;;;;;4.54;75.93;99511.60;105685;1254;69087;-70
2023/04/29 01:26:55;;;;;;;45.10;23.20;;;;;;;4.71;76.98;99508.67;105712;1257;72003;-73
2023/04/29 01:29:53;;;;;;;42.50;21.40;;;;;;;4.43;79.27;99514.63;105627;1253;62218;-71
2023/04/29 01:32:29;;;;;;;37.50;19.40;;;;;;;2.39;99.89;99511.47;105799;1253;61221;-66
2023/04/29 01:35:05;;;;;;;36.40;20.00;;;;;;;2.95;99.96;99515.23;105779;1257;74742;-64
2023/04/29 01:37:38;;;;;;;45.50;22.70;;;;;;;2.61;100.00;99515.77;105642;1259;68688;-68
2023/04/29 01:40:16;;;;;;;29.70;16.30;;;;;;;3.03;100.00;99520.91;105691;1257;73123;-64
2023/04/29 01:43:08;;;;;;;36.60;20.30;;;;;;;3.36;100.00;99519.30;105600;1253;62140;-68
2023/04/29 01:45:35;;;;;;;29.70;17.60;;;;;;;3.46;100.00;99515.62;105406;1254;61248;-68
2023/04/29 01:48:03;;;;;;;39.60;20.50;;;;;;;3.32;100.00;99520.31;105521;1262;75091;-72
2023/04/29 01:50:31;;;;;;;;;;;;;;;3.26;100.00;99520.45;105670;1262;69029;-69
2023/04/29 01:53:07;;;;;;;30.70;17.70;;;;;;;3.38;100.00;99526.65;105723;1254;73152;-71
2023/04/29 01:55:34;;;;;;;27.30;15.40;;;;;;;3.36;100.00;99528.38;105884;1254;61307;-72
2023/04/29 01:58:12;;;;;;;26.10;14.70;;;;;;;3.37;100.00;99527.59;105616;1252;62387;-69
2023/04/29 02:01:02;;;;;;;29.90;17.30;;;;;;;3.66;98.04;99529.23;105670;1256;74720;-70
2023/04/29 02:03:33;;;;;;;64.90;27.50;;;;;;;3.57;98.29;99533.02;105951;1254;69612;-71
2023/04/29 02:06:01;;;;;;;;;;;;;;;3.60;97.63;99535.19;105981;1256;72752;-72
2023/04/29 02:08:28;;;;;;;99.70;36.40;;;;;;;3.59;95.91;99538.85;106053;1254;61577;-73
2023/04/29 02:10:56;;;;;;;85.00;33.40;;;;;;;3.52;96.66;99541.52;106639;1254;61653;-72
2023/04/29 02:13:40;;;;;;;91.30;33.70;;;;;;;3.38;97.96;99541.42;106294;1252;74892;-76
2023/04/29 02:16:08;;;;;;;78.30;34.00;;;;;;;3.46;96.75;99541.26;105957;1254;69159;-73
2023/04/29 02:18:37;;;;;;;76.10;32.90;;;;;;;3.73;94.33;99539.63;105730;1254;71938;-71
2023/04/29 02:21:04;;;;;;;65.40;30.00;;;;;;;3.74;94.31;99542.08;105956;1253;62260;-71
2023/04/29 02:23:36;;;;;;;83.40;39.80;;;;;;;3.61;95.82;99540.71;105784;1253;61286;-68
2023/04/29 02:26:06;;;;;;;79.50;31.80;;;;;;;3.93;91.31;99543.23;105617;1253;74868;-70
2023/04/29 02:28:33;;;;;;;70.00;30.20;;;;;;;3.85;89.31;99539.02;105734;1253;68800;-72
2023/04/29 02:31:01;;;;;;;56.10;26.40;;;;;;;3.66;90.78;99544.30;105642;1255;73154;-68
2023/04/29 02:33:28;;;;;;;52.50;25.80;;;;;;;3.16;94.23;99546.73;105592;1254;61451;-68
2023/04/29 02:35:55;;;;;;;43.50;23.40;;;;;;;3.04;98.21;99546.37;105873;1252;61409;-70
2023/04/29 02:38:22;;;;;;;49.60;26.70;;;;;;;3.02;99.39;99545.67;105901;1257;74644;-73
2023/04/29 02:40:49;;;;;;;53.00;26.30;;;;;;;2.88;99.99;99548.73;105631;1254;69419;-71
2023/04/29 02:43:16;;;;;;;38.80;20.40;;;;;;;2.96;100.00;99554.38;105684;1254;72695;-68
2023/04/29 02:45:44;;;;;;;39.80;20.60;;;;;;;2.83;100.00;99562.06;105632;1253;61879;-71
2023/04/29 02:48:11;;;;;;;53.90;27.70;;;;;;;2.99;100.00;99562.68;105649;1253;61340;-71
2023/04/29 02:50:38;;;;;;;45.00;22.10;;;;;;;3.00;100.00;99564.85;105979;1256;75582;-72
2023/04/29 02:53:05;;;;;;;41.80;23.10;;;;;;;2.98;100.00;99564.20;105638;1254;68754;-72
2023/04/29 02:55:33;;;;;;;39.60;22.40;;;;;;;2.99;100.00;99567.27;105737;1258;73407;-71
2023/04/29 02:58:04;;;;;;;47.90;27.00;;;;;;;3.09;100.00;99569.09;105911;1256;61400;-73
2023/04/29 03:00:32;;;;;;;37.70;19.70;;;;;;;3.44;98.92;99566.45;105730;1254;61347;-73
2023/04/29 03:02:58;;;;;;;29.00;16.10;;;;;;;3.63;96.69;99568.08;105606;1258;73846;-71
2023/04/29 03:05:26;;;;;;;26.30;15.80;;;;;;;3.85;93.99;99570.63;105657;1253;69531;-67
2023/04/29 03:07:53;;;;;;;20.10;11.50;;;;;;;4.00;93.15;99572.88;105881;1253;72700;-70
2023/04/29 03:10:20;;;;;;;22.50;11.90;;;;;;;4.35;90.24;99572.05;105858;1253;62205;-70
2023/04/29 03:12:48;;;;;;;36.70;20.90;;;;;;;4.65;87.52;99575.92;105889;1253;61343;-72
2023/04/29 03:15:15;;;;;;;26.70;17.80;;;;;;;4.93;84.04;99578.19;105918;1255;75900;-71
2023/04/29 03:17:44;;;;;;;13.20;9.90;;;;;;;5.24;79.92;99581.52;105866;1253;69849;-73
2023/04/29 03:20:12;;;;;;;45.10;26.20;;;;;;;5.58;77.55;99588.45;105872;1253;73485;-70
2023/04/29 03:22:39;;;;;;;15.60;11.00;;;;;;;5.88;76.81;99585.31;105661;1253;62303;-72
2023/04/29 03:25:09;;;;;;;20.70;13.60;;;;;;;6.28;75.43;99587.95;105603;1254;61228;-73
2023/04/29 03:27:37;;;;;;;19.00;13.40;;;;;;;6.42;70.86;99594.85;105952;1253;74954;-72
2023/04/29 03:30:05;;;;;;;21.40;13.50;;;;;;;6.64;67.03;99594.63;105666;1254;68774;-70
2023/04/29 03:32:33;;;;;;;20.80;13.10;;;;;;;7.00;65.65;99600.83;105714;1259;71982;-72
2023/04/29 03:35:00;;;;;;;16.70;12.40;;;;;;;7.37;61.78;99601.71;105611;1259;61387;-72
2023/04/29 03:37:43;;;;;;;12.80;7.90;;;;;;;7.61;61.01;99604.70;105879;1253;61269;-71
2023/04/29 03:40:18;;;;;;;19.40;10.70;;;;;;;5.27;72.70;99602.77;105871;1253;75831;-72
2023/04/29 03:42:45;;;;;;;15.70;10.70;;;;;;;7.35;64.17;99612.98;105751;1256;68664;-72
2023/04/29 03:45:13;;;;;;;22.70;10.20;;;;;;;7.99;60.42;99620.39;105745;1254;72679;-69
2023/04/29 03:47:40;;;;;;;17.80;9.10;;;;;;;8.62;56.05;99622.29;105870;1253;61272;-71
2023/04/29 03:50:08;;;;;;;18.60;10.20;;;;;;;7.26;61.03;99616.82;105927;1253;62236;-73
2023/04/29 03:52:38;;;;;;;45.40;20.00;;;;;;;7.97;59.79;99621.60;105863;1255;75050;-71
2023/04/29 03:55:10;;;;;;;38.20;15.70;;;;;;;8.40;58.09;99623.81;105870;1253;68576;-71
2023/04/29 03:57:37;;;;;;;55.10;21.90;;;;;;;8.41;56.59;99628.96;105934;1252;73167;-71
2023/04/29 04:00:07;;;;;;;41.70;18.80;;;;;;;8.87;55.44;99629.16;105923;1253;61183;-72
2023/04/29 04:02:43;;;;;;;35.60;16.60;;;;;;;9.11;54.49;99627.90;105579;1253;61212;-73
2023/04/29 04:05:10;;;;;;;38.30;15.50;;;;;;;9.59;51.78;99633.06;105948;1252;75687;-70
2023/04/29 04:07:38;;;;;;;32.60;14.20;;;;;;;9.70;50.72;99634.24;105887;1253;68660;-72
2023/04/29 04:10:24;;;;;;;36.90;16.70;;;;;;;9.94;49.32;99643.31;105728;1253;73807;-71
2023/04/29 04:12:52;;;;;;;39.50;16.40;;;;;;;10.37;47.55;99641.11;105744;1253;61275;-71
2023/04/29 04:15:21;;;;;;;33.90;15.60;;;;;;;10.52;47.07;99644.67;105672;1253;61837;-73
2023/04/29 04:17:48;;;;;;;23.00;11.10;;;;;;;10.86;47.05;99646.05;105765;1253;75127;-71
2023/04/29 04:20:15;;;;;;;29.40;11.10;;;;;;;10.67;46.83;99643.34;105697;1257;68645;-73
2023/04/29 04:22:42;;;;;;;21.60;9.40;;;;;;;10.90;46.83;99646.84;105676;1253;73544;-72
2023/04/29 04:25:16;;;;;;;13.60;6.00;;;;;;;11.43;45.43;99648.55;105759;1257;61357;-72
2023/04/29 04:27:43;;;;;;;14.80;5.90;;;;;;;11.67;44.42;99655.92;105625;1258;61292;-72
2023/04/29 04:30:13;;;;;;;11.30;4.30;;;;;;;11.81;43.82;99654.23;105782;1255;74834;-73
2023/04/29 04:32:40;;;;;;;4.90;3.30;;;;;;;11.87;42.63;99656.19;105616;1253;68974;-72
2023/04/29 04:35:08;;;;;;;5.70;4.00;;;;;;;12.21;42.46;99659.40;105734;1253;72821;-72
2023/04/29 04:37:35;;;;;;;10.10;3.90;;;;;;;12.59;41.83;99662.46;105684;1253;61218;-71
2023/04/29 04:40:02;;;;;;;7.00;4.00;;;;;;;12.95;41.09;99665.84;105023;1253;1003068;-71
2023/04/29 04:42:32;;;;;;;5.70;3.90;;;;;;;12.97;39.76;99664.62;105751;1253;76090;-72
2023/04/29 04:44:59;;;;;;;7.70;4.00;;;;;;;13.08;40.01;99664.75;105746;1252;69882;-72
2023/04/29 04:47:46;;;;;;;3.90;3.50;;;;;;;13.30;39.62;99664.14;105710;1253;73510;-73
2023/04/29 04:50:21;;;;;;;5.40;3.00;;;;;;;13.59;39.35;99663.83;105852;1253;62329;-73
2023/04/29 04:52:48;;;;;;;4.80;4.00;;;;;;;13.79;39.06;99665.00;105936;1253;62199;-74
2023/04/29 04:55:32;;;;;;;6.70;3.80;;;;;;;13.78;38.84;99664.40;105825;1257;75621;-73
2023/04/29 04:58:01;;;;;;;9.60;4.40;;;;;;;13.79;38.79;99667.20;105695;1260;69281;-73
2023/04/29 05:00:29;;;;;;;5.30;3.50;;;;;;;13.83;38.07;99665.79;105680;1257;72668;-74
2023/04/29 05:02:57;;;;;;;6.80;4.40;;;;;;;14.29;37.68;99666.23;105677;1253;61441;-73
2023/04/29 05:05:24;;;;;;;8.20;4.40;;;;;;;14.27;37.29;99668.33;105680;1253;62182;-73
2023/04/29 05:07:51;;;;;;;11.60;6.70;;;;;;;13.73;37.19;99665.44;106219;1253;75049;-72
2023/04/29 05:10:26;;;;;;;14.20;5.60;;;;;;;13.89;37.39;99664.60;107730;1261;67170;-73
2023/04/29 05:12:55;;;;;;;10.40;5.40;;;;;;;14.02;36.84;99666.78;106440;1253;72921;-75
2023/04/29 05:15:22;;;;;;;15.70;6.50;;;;;;;14.10;36.89;99666.66;105676;1253;61232;-74
2023/04/29 05:17:50;;;;;;;12.60;5.60;;;;;;;14.25;36.55;99667.30;105592;1253;61264;-73
2023/04/29 05:20:17;;;;;;;10.10;5.10;;;;;;;14.26;36.32;99670.55;105650;1253;74583;-73
2023/04/29 05:22:45;;;;;;;6.20;4.30;;;;;;;14.57;35.85;99672.56;105550;1254;68837;-72
2023/04/29 05:25:12;;;;;;;6.80;3.70;;;;;;;14.78;35.19;99674.90;105668;1256;73534;-75
2023/04/29 05:27:40;;;;;;;6.30;3.70;;;;;;;15.03;35.09;99680.77;105670;1253;61243;-72
2023/04/29 05:30:11;;;;;;;4.60;3.20;;;;;;;15.26;34.64;99680.59;105674;1253;61260;-73
2023/04/29 05:32:38;;;;;;;3.60;2.80;;;;;;;15.64;34.08;99687.89;105683;1258;74669;-72
2023/04/29 05:35:07;;;;;;;7.20;3.20;;;;;;;15.93;33.36;99691.76;105736;1253;68571;-73
2023/04/29 05:37:34;;;;;;;4.70;3.80;;;;;;;16.00;32.80;99695.70;105648;1253;71586;-74
2023/04/29 05:40:14;;;;;;;6.10;3.40;;;;;;;16.13;33.05;99696.59;105857;1253;61602;-73
2023/04/29 05:42:41;;;;;;;4.60;2.90;;;;;;;16.20;32.59;99697.59;105646;1253;61334;-73
2023/04/29 05:45:09;;;;;;;5.40;2.80;;;;;;;16.47;32.77;99697.55;105720;1257;75014;-73
2023/04/29 05:47:36;;;;;;;4.50;2.80;;;;;;;16.82;32.10;99696.92;105817;1258;68455;-75
2023/04/29 05:50:03;;;;;;;5.90;2.50;;;;;;;16.92;31.92;99697.35;105900;1253;70938;-76
2023/04/29 05:52:30;;;;;;;6.70;2.50;;;;;;;16.95;31.62;99697.63;105851;1253;61331;-74
2023/04/29 05:54:58;;;;;;;6.70;2.90;;;;;;;16.91;31.62;99692.92;105686;1254;61352;-73
2023/04/29 05:57:25;;;;;;;7.00;2.60;;;;;;;17.02;31.45;99693.92;105643;1256;75761;-73
2023/04/29 05:59:56;;;;;;;3.60;2.10;;;;;;;17.01;30.38;99697.11;105668;1256;69011;-73
2023/04/29 06:02:23;;;;;;;6.10;2.80;;;;;;;16.89;30.87;99696.31;105773;1256;73811;-73
2023/04/29 06:04:50;;;;;;;4.00;2.50;;;;;;;17.18;31.02;99699.25;105889;1257;61241;-72
2023/04/29 06:07:27;;;;;;;6.70;2.30;;;;;;;16.98;30.86;99696.48;105658;1253;61350;-72
2023/04/29 06:09:59;;;;;;;4.30;2.40;;;;;;;17.04;30.36;99697.56;105888;1256;74911;-73
2023/04/29 06:12:26;;;;;;;1.90;1.70;;;;;;;17.33;30.12;99695.83;105828;1253;69917;-74
2023/04/29 06:14:54;;;;;;;7.40;2.40;;;;;;;17.27;29.94;99694.93;105644;1259;73782;-73
2023/04/29 06:17:21;;;;;;;4.90;2.10;;;;;;;17.42;29.81;99694.02;105777;1253;61276;-75
2023/04/29 06:19:48;;;;;;;5.00;2.70;;;;;;;17.22;29.55;99697.30;105601;1253;61466;-73
2023/04/29 06:22:15;;;;;;;5.70;2.70;;;;;;;17.04;30.01;99696.91;105733;1258;74641;-74
2023/04/29 06:24:48;;;;;;;16.60;6.10;;;;;;;17.01;29.43;99696.95;106007;1254;69336;-72
2023/04/29 06:27:22;;;;;;;1.80;1.70;;;;;;;17.53;29.26;99701.05;105665;1254;72863;-74
2023/04/29 06:29:48;;;;;;;3.10;1.90;;;;;;;17.54;29.04;99696.80;105640;1259;61383;-71
2023/04/29 06:32:15;;;;;;;6.80;3.80;;;;;;;17.42;28.99;99696.83;105634;1253;61247;-74
2023/04/29 06:34:44;;;;;;;5.20;2.20;;;;;;;17.40;29.62;99697.40;105706;1253;73681;-78
2023/04/29 06:37:27;;;;;;;5.40;3.00;;;;;;;17.59;28.46;99700.84;106053;1252;68940;-73
2023/04/29 06:40:06;;;;;;;2.20;1.60;;;;;;;17.71;27.84;99698.64;105987;1254;73589;-76
2023/04/29 06:43:03;;;;;;;3.70;2.30;;;;;;;17.27;27.89;99697.48;105959;1254;61360;-72
2023/04/29 06:45:50;;;;;;;;;;;;;;;17.35;28.27;99697.96;105900;1252;62425;-72
2023/04/29 06:48:21;;;;;;;5.40;2.10;;;;;;;17.50;27.97;99700.95;105960;1256;74668;-73
2023/04/29 06:50:53;;;;;;;3.00;2.00;;;;;;;17.85;27.55;99699.13;106043;1254;69369;-72
2023/04/29 06:53:20;;;;;;;4.00;1.90;;;;;;;18.09;26.76;99694.67;105601;1253;72537;-72
2023/04/29 06:55:47;;;;;;;3.60;2.20;;;;;;;17.88;26.89;99696.03;105967;1253;61256;-73
2023/04/29 06:58:15;;;;;;;7.00;4.20;;;;;;;17.76;27.14;99697.86;105961;1253;61379;-72
2023/04/29 07:00:46;;;;;;;4.60;2.40;;;;;;;17.75;26.52;99699.79;105932;1257;74587;-75
2023/04/29 07:03:14;;;;;;;5.60;1.80;;;;;;;17.55;26.46;99704.05;106075;1253;70126;-74
2023/04/29 07:05:44;;;;;;;4.10;2.30;;;;;;;17.34;27.03;99702.16;105800;1258;73388;-74
2023/04/29 07:08:12;;;;;;;4.30;3.10;;;;;;;17.50;27.14;99690.95;105901;1257;61322;-73
2023/04/29 07:10:40;;;;;;;4.90;2.90;;;;;;;17.28;27.01;99694.70;105978;1253;61292;-71
2023/04/29 07:13:07;;;;;;;3.70;2.50;;;;;;;16.86;27.53;99691.41;106036;1253;73299;-73
2023/04/29 07:15:35;;;;;;;3.90;2.20;;;;;;;17.39;27.81;99699.59;105967;1257;67824;-72
2023/04/29 07:18:04;;;;;;;4.70;1.80;;;;;;;17.78;27.15;99693.87;106076;1253;72581;-72
2023/04/29 07:20:31;;;;;;;5.00;2.20;;;;;;;17.68;26.06;99692.13;105904;1253;61409;-72
2023/04/29 07:22:58;;;;;;;3.30;2.00;;;;;;;17.77;26.49;99692.58;106143;1253;61391;-75
2023/04/29 07:25:26;;;;;;;2.20;2.10;;;;;;;17.85;25.85;99693.10;105944;1253;74859;-72
2023/04/29 07:27:53;;;;;;;;;;;;;;;18.12;25.34;99686.53;105962;1257;67908;-72
2023/04/29 07:30:20;;;;;;;2.40;1.50;;;;;;;17.89;24.53;99688.21;106008;1254;72699;-74
2023/04/29 07:32:47;;;;;;;3.00;1.80;;;;;;;17.68;24.66;99685.88;106122;1254;61232;-76
2023/04/29 07:35:14;;;;;;;7.00;2.80;;;;;;;17.80;25.23;99688.77;106035;1253;61336;-74
2023/04/29 07:37:42;;;;;;;5.20;2.40;;;;;;;18.52;25.29;99689.11;106026;1255;74018;-74
2023/04/29 07:40:10;;;;;;;3.80;2.20;;;;;;;19.47;24.19;99692.91;105865;1253;69143;-74
2023/04/29 07:42:37;;;;;;;2.40;1.90;;;;;;;19.73;23.63;99685.82;105753;1256;70760;-75
2023/04/29 07:45:06;;;;;;;;;;;;;;;19.20;24.00;99684.55;105994;1254;61274;-72
2023/04/29 07:47:33;;;;;;;2.80;1.90;;;;;;;18.57;24.67;99679.61;106037;1253;61212;-77
2023/04/29 07:50:00;;;;;;;6.50;2.00;;;;;;;18.10;24.52;99685.81;105751;1253;75670;-76
2023/04/29 07:52:28;;;;;;;4.00;2.40;;;;;;;18.33;24.83;99685.31;105800;1253;69452;-80
2023/04/29 07:54:55;;;;;;;3.70;1.90;;;;;;;18.56;24.13;99683.61;105933;1255;70414;-75
2023/04/29 07:57:22;;;;;;;4.80;2.00;;;;;;;17.86;24.62;99676.08;105830;1254;61530;-75
2023/04/29 07:59:52;;;;;;;2.20;1.80;;;;;;;15.51;27.41;99668.27;105943;1253;61336;-76
2023/04/29 08:02:20;;;;;;;3.70;2.30;;;;;;;17.54;25.85;99674.92;106103;1256;73617;-76
2023/04/29 08:04:47;;;;;;;3.50;2.00;;;;;;;17.52;25.56;99671.85;105833;1259;68027;-73
2023/04/29 08:07:16;;;;;;;3.50;2.20;;;;;;;15.23;27.61;99662.42;106123;1256;73149;-77
2023/04/29 08:09:43;;;;;;;3.60;1.90;;;;;;;16.10;27.05;99666.40;106045;1254;61326;-76
2023/04/29 08:12:10;;;;;;;8.60;2.20;;;;;;;16.65;25.96;99664.14;107491;1252;61272;-76
2023/04/29 08:14:39;;;;;;;5.80;1.80;;;;;;;17.71;24.80;99668.62;107490;1256;73192;-76
2023/04/29 08:17:07;;;;;;;4.10;2.30;;;;;;;18.02;25.27;99667.25;106012;1257;68481;-76
2023/04/29 08:19:34;;;;;;;3.80;2.00;;;;;;;18.47;24.59;99670.73;106131;1253;72701;-78
2023/04/29 08:22:03;;;;;;;5.70;2.40;;;;;;;19.22;24.14;99674.17;106060;1253;61480;-76
2023/04/29 08:24:32;;;;;;;2.60;1.70;;;;;;;19.36;23.15;99673.15;106166;1254;61432;-76
2023/04/29 08:26:59;;;;;;;2.30;2.10;;;;;;;18.77;23.72;99663.66;106071;1252;74212;-76
2023/04/29 08:29:26;;;;;;;2.70;1.70;;;;;;;18.21;24.43;99662.99;106108;1254;68867;-74
2023/04/29 08:31:53;;;;;;;4.30;2.30;;;;;;;18.38;24.73;99666.73;106074;1256;73465;-76
2023/04/29 08:34:20;;;;;;;4.20;2.00;;;;;;;18.62;24.75;99655.33;106064;1256;61269;-76
2023/04/29 08:36:47;;;;;;;3.40;1.90;;;;;;;19.19;24.46;99655.91;105844;1258;61240;-77
2023/04/29 08:39:13;;;;;;;3.40;2.30;;;;;;;19.46;24.28;99653.86;106082;1254;72986;-75
2023/04/29 08:41:42;;;;;;;3.00;1.60;;;;;;;19.12;24.85;99652.18;106080;1253;68714;-76
2023/04/29 08:44:09;;;;;;;2.60;1.60;;;;;;;19.21;24.46;99654.78;105934;1253;73254;-75
2023/04/29 08:46:37;;;;;;;2.90;2.00;;;;;;;18.39;25.21;99647.76;106042;1254;61489;-76
2023/04/29 08:49:04;;;;;;;2.90;1.50;;;;;;;18.65;25.04;99648.46;106075;1254;61170;-75
2023/04/29 08:51:33;;;;;;;2.30;1.40;;;;;;;19.14;24.44;99647.55;106063;1254;73776;-76
2023/04/29 08:54:00;;;;;;;4.20;2.00;;;;;;;18.77;24.31;99647.42;105957;1254;69770;-75
2023/04/29 08:56:27;;;;;;;3.50;1.90;;;;;;;15.53;27.66;99631.84;105935;1256;72696;-77
2023/04/29 08:58:55;;;;;;;4.10;1.90;;;;;;;15.04;27.81;99629.40;105825;1253;61259;-78
2023/04/29 09:01:22;;;;;;;3.70;1.70;;;;;;;14.89;28.09;99628.18;105850;1253;61682;-76
2023/04/29 09:03:53;;;;;;;6.70;2.30;;;;;;;16.12;27.99;99633.66;105725;1253;137294;-76
2023/04/29 09:06:21;;;;;;;4.50;1.60;;;;;;;15.44;27.72;99629.34;105910;1253;69725;-78
2023/04/29 09:08:47;;;;;;;4.00;2.00;;;;;;;16.54;26.43;99630.84;105880;1258;70519;-76
2023/04/29 09:11:14;;;;;;;2.40;1.80;;;;;;;17.98;24.39;99630.70;106047;1253;61323;-77
2023/04/29 09:13:41;;;;;;;3.40;1.80;;;;;;;18.15;25.02;99628.52;105854;1253;61275;-76
2023/04/29 09:16:11;;;;;;;2.00;1.80;;;;;;;18.26;24.91;99624.52;106228;1253;73418;-77
2023/04/29 09:18:49;;;;;;;4.10;1.60;;;;;;;18.33;24.34;99625.59;106220;1256;69808;-78
2023/04/29 09:21:16;;;;;;;2.80;1.90;;;;;;;17.68;25.12;99625.02;106070;1253;73902;-77
2023/04/29 09:23:43;;;;;;;4.10;2.10;;;;;;;17.98;24.61;99628.51;106068;1253;61308;-76
2023/04/29 09:26:10;;;;;;;2.80;1.60;;;;;;;17.19;24.84;99617.70;105804;1261;61254;-77
2023/04/29 09:28:40;;;;;;;3.80;2.00;;;;;;;15.62;27.06;99613.17;106101;1256;75594;-76
2023/04/29 09:31:07;;;;;;;3.00;2.40;;;;;;;15.63;27.74;99608.36;106106;1253;69951;-76
2023/04/29 09:33:51;;;;;;;3.80;2.60;;;;;;;15.36;27.88;99602.02;106030;1253;71709;-77
2023/04/29 09:36:48;;;;;;;2.60;1.90;;;;;;;15.30;28.01;99606.73;106092;1256;61347;-76
2023/04/29 09:39:20;;;;;;;3.10;2.00;;;;;;;14.96;28.88;99606.02;105404;1266;61254;-77
2023/04/29 09:41:53;;;;;;;3.60;2.20;;;;;;;15.45;28.67;99601.07;105474;1259;73480;-78
2023/04/29 09:44:30;;;;;;;5.10;2.50;;;;;;;16.89;27.32;99608.68;105463;1264;69645;-77
2023/04/29 09:47:02;;;;;;;3.30;2.20;;;;;;;16.91;26.91;99610.70;105617;1259;73076;-77
2023/04/29 09:49:37;;;;;;;3.70;2.10;;;;;;;16.92;26.86;99608.80;105466;1259;61347;-76
2023/04/29 09:52:15;;;;;;;2.10;1.90;;;;;;;17.09;26.91;99612.83;105459;1259;61429;-77
2023/04/29 09:54:42;;;;;;;;;;;;;;;17.18;26.18;99615.17;105482;1264;74711;-75
2023/04/29 09:57:10;;;;;;;6.50;2.30;;;;;;;17.31;26.34;99607.98;105388;1265;68690;-77
2023/04/29 09:59:38;;;;;;;;;;;;;;;17.55;26.04;99604.19;105431;1260;73436;-77
2023/04/29 10:02:16;;;;;;;3.60;1.90;;;;;;;17.77;25.74;99607.64;105359;1266;61118;-76
2023/04/29 10:04:47;;;;;;;3.00;2.20;;;;;;;16.39;26.21;99590.83;105325;1262;61360;-79
2023/04/29 10:07:15;;;;;;;3.00;1.80;;;;;;;16.48;27.03;99596.83;105337;1261;74445;-76
2023/04/29 10:09:43;;;;;;;;;;;;;;;17.12;26.25;99604.25;105455;1261;68734;-77
2023/04/29 10:12:10;;;;;;;5.30;2.60;;;;;;;15.38;28.03;99593.43;105337;1262;73783;-80
2023/04/29 10:14:44;;;;;;;3.30;2.40;;;;;;;15.44;27.41;99596.73;105344;1261;61240;-77
2023/04/29 10:17:16;;;;;;;3.10;2.20;;;;;;;15.45;27.39;99592.94;106009;1253;61397;-79
2023/04/29 10:19:56;;;;;;;2.70;1.80;;;;;;;15.97;27.64;99593.11;106069;1258;75512;-78
2023/04/29 10:22:29;;;;;;;2.20;1.80;;;;;;;17.82;26.77;99594.71;106130;1259;68894;-79
2023/04/29 10:24:58;;;;;;;2.40;1.90;;;;;;;18.91;24.51;99600.02;106077;1254;72524;-78
2023/04/29 10:27:25;;;;;;;;;;;;;;;18.52;24.55;99596.39;105854;1253;61447;-77
2023/04/29 10:29:52;;;;;;;1.80;1.40;;;;;;;16.81;25.93;99596.41;106034;1257;61317;-77
2023/04/29 10:32:18;;;;;;;5.10;1.50;;;;;;;16.03;25.85;99584.94;105846;1253;75792;-75
2023/04/29 10:34:45;;;;;;;3.20;1.90;;;;;;;15.58;26.29;99586.15;105800;1256;68933;-76
2023/04/29 10:37:12;;;;;;;2.60;1.80;;;;;;;15.59;26.96;99581.27;105718;1253;73707;-76
2023/04/29 10:39:52;;;;;;;2.70;1.70;;;;;;;15.52;27.02;99577.61;105791;1259;61230;-76
2023/04/29 10:42:34;;;;;;;3.20;1.80;;;;;;;15.67;27.42;99573.52;106020;1253;61273;-76
2023/04/29 10:45:34;;;;;;;2.20;1.90;;;;;;;15.79;27.39;99571.13;106051;1253;74801;-77
2023/04/29 10:48:01;;;;;;;2.80;1.80;;;;;;;15.96;26.79;99565.43;105961;1259;69965;-76
2023/04/29 10:50:29;;;;;;;3.00;1.80;;;;;;;15.88;26.77;99570.33;106128;1258;73116;-75
2023/04/29 10:52:56;;;;;;;3.50;1.90;;;;;;;15.96;27.38;99568.98;105910;1253;61282;-76
2023/04/29 10:55:23;;;;;;;2.60;1.60;;;;;;;16.57;26.84;99569.31;105828;1253;61339;-76
2023/04/29 10:57:57;;;;;;;2.50;2.20;;;;;;;16.35;26.52;99564.64;106036;1254;72910;-76
2023/04/29 11:00:28;;;;;;;4.00;1.90;;;;;;;16.09;26.92;99568.82;105837;1253;68989;-76
2023/04/29 11:02:56;;;;;;;2.80;1.90;;;;;;;16.31;26.50;99562.84;106055;1257;72879;-76
2023/04/29 11:05:29;;;;;;;3.00;1.90;;;;;;;17.97;25.35;99565.95;105858;1254;61948;-77
2023/04/29 11:08:12;;;;;;;4.90;2.30;;;;;;;18.22;24.31;99566.54;106044;1254;61145;-77
2023/04/29 11:10:42;;;;;;;4.00;2.00;;;;;;;18.78;24.51;99566.61;106057;1255;75358;-79
2023/04/29 11:13:28;;;;;;;2.30;1.60;;;;;;;19.28;24.64;99565.90;106091;1253;69295;-78
2023/04/29 11:16:06;;;;;;;4.00;1.70;;;;;;;19.12;24.28;99558.91;106384;1257;73263;-77
2023/04/29 11:18:36;;;;;;;4.20;2.00;;;;;;;19.32;23.65;99552.21;108610;1253;61253;-77
2023/04/29 11:21:05;;;;;;;;;;;;;;;19.33;24.06;99554.01;106881;1259;61446;-75
2023/04/29 11:23:33;;;;;;;3.60;1.70;;;;;;;18.92;23.88;99547.55;105905;1257;75232;-75
2023/04/29 11:26:00;;;;;;;3.70;1.90;;;;;;;19.16;24.12;99541.39;106120;1254;69103;-74
2023/04/29 11:28:27;;;;;;;4.70;1.40;;;;;;;19.27;24.31;99540.63;105794;1256;72747;-74
2023/04/29 11:30:54;;;;;;;2.90;1.70;;;;;;;19.21;23.19;99539.09;105934;1264;61247;-76
2023/04/29 11:33:21;;;;;;;4.00;2.40;;;;;;;19.27;23.65;99535.45;105851;1261;61116;-74
2023/04/29 11:35:48;;;;;;;5.00;1.90;;;;;;;19.26;23.30;99532.05;106044;1256;75502;-75
2023/04/29 11:38:15;;;;;;;6.70;2.70;;;;;;;19.25;23.38;99530.13;105921;1255;69869;-76